Time;durP1;ratioP1;P1;durP2;ratioP2;P2;SDS_P1;SDS_P2;PMS_P1;PMS_P2;Temp;Humidity;BMP_temperature;BMP_pressure;BME280_temperature;BME280_humidity;BME280_pressure;Samples;Min_cycle;Max_cycle;Signal;HPM_P1;HPM_P2
2022/05/28 00:00:33;;;;;;;19.90;18.27;;;9.80;99.90;;;;;;4988786;28;20049;-74
2022/05/28 00:03:01;;;;;;;20.67;18.70;;;9.80;99.90;;;;;;5005787;28;20096;-74
2022/05/28 00:05:28;;;;;;;22.23;18.73;;;9.80;99.90;;;;;;4989347;28;20089;-74
2022/05/28 00:07:55;;;;;;;19.38;17.50;;;9.80;99.90;;;;;;4988906;28;20313;-74
2022/05/28 00:10:22;;;;;;;20.23;18.13;;;9.70;99.90;;;;;;5005774;28;20057;-74
2022/05/28 00:12:48;;;;;;;25.35;19.40;;;9.70;99.90;;;;;;4958109;28;20069;-74
2022/05/28 00:15:17;;;;;;;21.55;18.60;;;9.80;99.90;;;;;;4996418;28;20140;-74
2022/05/28 00:17:43;;;;;;;19.27;17.50;;;9.70;99.90;;;;;;5003262;28;20073;-74
2022/05/28 00:20:11;;;;;;;19.88;18.05;;;9.70;99.90;;;;;;5011903;28;20073;-74
2022/05/28 00:22:43;;;;;;;19.92;17.60;;;9.70;99.90;;;;;;4987839;28;20104;-74
2022/05/28 00:25:13;;;;;;;19.05;17.33;;;9.70;99.90;;;;;;4993541;28;20057;-74
2022/05/28 00:27:40;;;;;;;18.90;17.40;;;9.70;99.90;;;;;;4969617;28;20058;-74
2022/05/28 00:30:10;;;;;;;21.90;17.77;;;9.60;99.90;;;;;;4984048;28;20065;-74
2022/05/28 00:32:36;;;;;;;19.52;17.38;;;9.60;99.90;;;;;;4971235;28;20077;-74
2022/05/28 00:35:05;;;;;;;18.98;17.08;;;9.60;99.90;;;;;;4988036;28;20490;-75
2022/05/28 00:37:32;;;;;;;21.13;18.15;;;9.60;99.90;;;;;;4988154;28;20112;-74
2022/05/28 00:40:01;;;;;;;21.00;18.10;;;9.60;99.90;;;;;;4972675;28;20490;-74
2022/05/28 00:42:27;;;;;;;30.92;18.15;;;9.60;99.90;;;;;;4985853;28;20046;-74
2022/05/28 00:44:54;;;;;;;18.17;16.58;;;9.60;99.90;;;;;;4994232;28;20057;-74
2022/05/28 00:47:22;;;;;;;22.42;17.95;;;9.60;99.90;;;;;;5002818;28;20042;-74
2022/05/28 00:49:49;;;;;;;19.08;17.35;;;9.60;99.90;;;;;;4995305;28;20125;-74
2022/05/28 00:52:18;;;;;;;19.23;17.38;;;9.60;99.90;;;;;;4987647;28;20123;-74
2022/05/28 00:54:47;;;;;;;19.50;17.52;;;9.50;99.90;;;;;;5005184;28;20048;-74
2022/05/28 00:57:16;;;;;;;18.77;16.90;;;9.50;99.90;;;;;;5003806;28;20581;-74
2022/05/28 00:59:44;;;;;;;19.33;17.15;;;9.50;99.90;;;;;;4988559;28;20077;-74
2022/05/28 01:02:39;;;;;;;19.40;17.13;;;9.60;99.90;;;;;;4987478;28;20057;-75
2022/05/28 01:05:30;;;;;;;19.33;17.37;;;9.60;99.90;;;;;;5005319;28;20045;-73
2022/05/28 01:08:03;;;;;;;19.15;17.55;;;9.60;99.90;;;;;;4988966;28;20639;-74
2022/05/28 01:10:52;;;;;;;22.73;17.85;;;9.50;99.90;;;;;;4987993;28;20058;-75
2022/05/28 01:13:35;;;;;;;19.92;17.42;;;9.50;99.90;;;;;;4998822;28;20460;-74
2022/05/28 01:16:34;;;;;;;22.13;17.63;;;9.50;99.90;;;;;;4994347;28;20042;-74
2022/05/28 01:19:22;;;;;;;26.30;18.17;;;9.60;99.90;;;;;;4980122;28;20058;-74
2022/05/28 01:22:18;;;;;;;19.70;17.38;;;9.40;99.90;;;;;;5001273;28;20139;-74
2022/05/28 01:25:05;;;;;;;;;;;9.50;99.90;;;;;;4957558;28;20061;-74
2022/05/28 01:27:37;;;;;;;20.02;17.23;;;9.50;99.90;;;;;;4986197;28;20445;-74
2022/05/28 01:30:08;;;;;;;26.92;18.23;;;9.40;99.90;;;;;;4987019;28;20451;-74
2022/05/28 01:32:36;;;;;;;22.80;16.73;;;9.50;99.90;;;;;;4989179;28;20086;-74
2022/05/28 01:35:09;;;;;;;18.70;16.27;;;9.50;99.90;;;;;;4990159;28;20050;-74
2022/05/28 01:37:38;;;;;;;19.70;16.90;;;9.40;99.90;;;;;;4990125;28;20581;-74
2022/05/28 01:40:07;;;;;;;25.00;17.33;;;9.40;99.90;;;;;;4995641;28;20677;-74
2022/05/28 01:42:38;;;;;;;21.45;16.60;;;9.40;99.90;;;;;;4991650;28;20541;-74
2022/05/28 01:45:07;;;;;;;18.45;16.50;;;9.40;99.90;;;;;;4997976;28;20557;-75
2022/05/28 01:47:35;;;;;;;22.92;18.17;;;9.30;99.90;;;;;;5004839;28;20077;-73
2022/05/28 01:50:06;;;;;;;30.92;18.15;;;9.40;99.90;;;;;;4998220;28;20103;-74
2022/05/28 01:52:34;;;;;;;22.40;16.10;;;9.30;99.90;;;;;;5009198;28;20065;-74
2022/05/28 01:55:02;;;;;;;21.38;16.38;;;9.30;99.90;;;;;;5009030;28;20092;-74
2022/05/28 01:57:29;;;;;;;23.67;17.80;;;9.30;99.90;;;;;;5009587;28;20050;-75
2022/05/28 01:59:56;;;;;;;20.38;16.27;;;9.30;99.90;;;;;;5009795;28;20120;-74
2022/05/28 02:02:23;;;;;;;31.05;19.63;;;9.30;99.90;;;;;;5009141;28;20042;-74
2022/05/28 02:04:50;;;;;;;19.75;17.30;;;9.30;99.90;;;;;;5009893;28;20771;-74
2022/05/28 02:07:18;;;;;;;19.88;17.83;;;9.40;99.90;;;;;;5008868;28;20046;-74
2022/05/28 02:10:16;;;;;;;21.27;17.23;;;9.40;99.90;;;;;;4992610;28;20793;-74
2022/05/28 02:13:01;;;;;;;20.42;18.17;;;9.40;99.90;;;;;;4988941;28;20053;-74
2022/05/28 02:15:43;;;;;;;19.05;17.20;;;9.40;99.90;;;;;;4995010;28;20046;-74
2022/05/28 02:18:24;;;;;;;23.25;17.85;;;9.40;99.90;;;;;;4994896;28;20084;-74
2022/05/28 02:21:08;;;;;;;21.40;16.70;;;9.40;99.90;;;;;;4992160;28;20071;-74
2022/05/28 02:23:38;;;;;;;24.13;17.35;;;9.40;99.90;;;;;;4989566;28;20495;-74
2022/05/28 02:26:15;;;;;;;21.25;17.20;;;9.40;99.90;;;;;;4971386;28;20046;-74
2022/05/28 02:28:44;;;;;;;21.30;17.30;;;9.40;99.90;;;;;;4989832;28;20050;-74
2022/05/28 02:31:24;;;;;;;20.17;16.83;;;9.40;99.90;;;;;;4988067;28;20046;-74
2022/05/28 02:33:51;;;;;;;19.60;16.92;;;9.40;99.90;;;;;;5008363;28;20096;-74
2022/05/28 02:36:19;;;;;;;19.67;16.80;;;9.30;99.90;;;;;;5008535;28;20655;-74
2022/05/28 02:38:46;;;;;;;17.58;15.75;;;9.30;99.90;;;;;;5002098;28;20223;-74
2022/05/28 02:41:13;;;;;;;19.55;16.08;;;9.30;99.90;;;;;;4995225;28;20082;-74
2022/05/28 02:43:40;;;;;;;22.10;16.75;;;9.30;99.90;;;;;;4977905;28;20046;-73
2022/05/28 02:46:08;;;;;;;25.70;17.80;;;9.30;99.90;;;;;;4985782;28;20049;-74
2022/05/28 02:48:36;;;;;;;24.13;15.95;;;9.30;99.90;;;;;;4980666;28;20124;-74
2022/05/28 02:51:04;;;;;;;17.95;16.13;;;9.30;99.90;;;;;;4984641;28;20438;-74
2022/05/28 02:53:32;;;;;;;24.15;17.38;;;9.30;99.90;;;;;;4990765;28;20056;-74
2022/05/28 02:55:59;;;;;;;19.42;16.75;;;9.30;99.90;;;;;;5008160;28;20311;-74
2022/05/28 02:58:26;;;;;;;23.42;17.92;;;9.30;99.90;;;;;;5008889;28;20054;-74
2022/05/28 03:00:53;;;;;;;23.77;16.45;;;9.30;99.90;;;;;;4990998;28;20046;-74
2022/05/28 03:03:20;;;;;;;29.83;17.15;;;9.30;99.90;;;;;;5009388;28;20052;-75
2022/05/28 03:05:48;;;;;;;21.30;14.43;;;9.20;99.90;;;;;;4993950;28;20046;-76
2022/05/28 03:08:15;;;;;;;22.10;13.40;;;9.20;99.90;;;;;;4989356;28;20050;-77
2022/05/28 03:10:42;;;;;;;20.90;12.90;;;9.00;99.90;;;;;;4989771;28;20104;-75
2022/05/28 03:13:09;;;;;;;17.60;12.27;;;8.70;99.90;;;;;;4993602;28;20053;-76
2022/05/28 03:15:36;;;;;;;23.00;11.43;;;8.50;99.90;;;;;;5000252;28;20041;-76
2022/05/28 03:18:03;;;;;;;29.40;11.45;;;8.50;99.90;;;;;;5003315;28;20057;-76
2022/05/28 03:20:31;;;;;;;20.70;10.25;;;8.50;99.90;;;;;;5003435;28;20053;-76
2022/05/28 03:22:58;;;;;;;23.30;9.93;;;8.50;99.90;;;;;;4989485;28;20053;-76
2022/05/28 03:25:26;;;;;;;19.90;10.02;;;8.50;99.90;;;;;;4975712;28;20057;-76
2022/05/28 03:27:52;;;;;;;21.13;9.60;;;8.50;99.90;;;;;;5003825;28;20109;-76
2022/05/28 03:30:19;;;;;;;19.55;9.85;;;8.50;99.90;;;;;;4970075;28;20073;-76
2022/05/28 03:32:46;;;;;;;20.58;7.97;;;8.50;99.90;;;;;;4987977;28;20058;-75
2022/05/28 03:35:12;;;;;;;20.83;7.88;;;8.60;99.90;;;;;;5005244;28;20108;-75
2022/05/28 03:37:39;;;;;;;19.77;8.75;;;8.60;99.90;;;;;;5007800;28;20046;-76
2022/05/28 03:40:07;;;;;;;29.58;8.85;;;8.60;99.90;;;;;;4990799;28;20046;-75
2022/05/28 03:42:34;;;;;;;17.38;8.40;;;8.70;99.90;;;;;;4972745;28;20054;-75
2022/05/28 03:45:01;;;;;;;23.67;7.97;;;8.70;99.90;;;;;;4976204;28;20525;-76
2022/05/28 03:47:29;;;;;;;16.25;7.80;;;8.70;99.90;;;;;;5005337;28;20057;-75
2022/05/28 03:49:56;;;;;;;17.95;8.68;;;8.70;99.90;;;;;;4980983;28;20116;-75
2022/05/28 03:52:23;;;;;;;19.10;8.18;;;8.70;99.90;;;;;;4987243;28;20043;-76
2022/05/28 03:54:50;;;;;;;22.92;8.65;;;8.70;99.90;;;;;;5001867;28;20109;-76
2022/05/28 03:57:30;;;;;;;16.23;8.35;;;8.70;99.90;;;;;;4984279;28;20050;-76
2022/05/28 03:59:57;;;;;;;20.40;9.52;;;8.70;99.90;;;;;;5007222;28;20084;-75
2022/05/28 04:02:25;;;;;;;16.92;9.52;;;8.70;99.90;;;;;;5007224;28;20049;-75
2022/05/28 04:04:52;;;;;;;22.23;9.05;;;8.70;99.90;;;;;;5008133;28;20054;-74
2022/05/28 04:07:20;;;;;;;22.58;9.05;;;8.70;99.90;;;;;;4989827;28;20046;-75
2022/05/28 04:09:46;;;;;;;15.30;8.60;;;8.70;99.90;;;;;;4990067;28;20097;-75
2022/05/28 04:12:13;;;;;;;19.63;9.20;;;8.70;99.90;;;;;;5006808;28;20061;-75
2022/05/28 04:14:40;;;;;;;11.50;8.95;;;8.70;99.90;;;;;;4997709;28;20421;-75
2022/05/28 04:17:07;;;;;;;16.38;8.15;;;8.70;99.90;;;;;;4996284;28;20042;-77
2022/05/28 04:19:38;;;;;;;23.35;10.50;;;8.70;99.90;;;;;;4981169;28;20049;-75
2022/05/28 04:22:05;;;;;;;19.75;9.13;;;8.70;99.90;;;;;;4992672;28;20819;-76
2022/05/28 04:24:32;;;;;;;15.70;8.57;;;8.70;99.90;;;;;;4987575;28;20069;-76
2022/05/28 04:26:59;;;;;;;21.13;9.77;;;8.70;99.90;;;;;;4987601;28;20046;-75
2022/05/28 04:29:25;;;;;;;19.48;9.98;;;8.70;99.90;;;;;;5002881;28;20054;-76
2022/05/28 04:31:52;;;;;;;18.20;9.43;;;8.80;99.90;;;;;;4969746;28;20559;-76
2022/05/28 04:34:19;;;;;;;12.55;9.63;;;8.80;99.90;;;;;;5002210;28;20117;-76
2022/05/28 04:36:45;;;;;;;14.85;9.82;;;8.90;99.90;;;;;;4986178;28;20050;-76
2022/05/28 04:39:12;;;;;;;14.50;10.95;;;9.00;99.90;;;;;;4977441;28;20050;-75
2022/05/28 04:41:39;;;;;;;16.30;11.40;;;9.00;99.90;;;;;;4978119;28;20065;-76
2022/05/28 04:44:06;;;;;;;22.20;11.50;;;9.00;99.90;;;;;;4986847;28;20077;-76
2022/05/28 04:46:33;;;;;;;23.05;11.00;;;9.00;99.90;;;;;;4976701;28;20050;-77
2022/05/28 04:49:00;;;;;;;18.88;12.00;;;9.00;99.90;;;;;;4996943;28;20054;-77
2022/05/28 04:51:27;;;;;;;18.83;10.38;;;9.00;99.90;;;;;;4983416;28;20053;-76
2022/05/28 04:53:53;;;;;;;14.85;10.63;;;9.00;99.90;;;;;;4991243;28;20053;-76
2022/05/28 04:56:20;;;;;;;15.15;11.68;;;9.00;99.90;;;;;;4994784;28;20045;-76
2022/05/28 04:58:47;;;;;;;17.80;11.40;;;8.90;99.90;;;;;;5009303;28;20124;-77
2022/05/28 05:01:18;;;;;;;19.15;11.38;;;8.90;99.90;;;;;;5007968;28;20045;-75
2022/05/28 05:03:45;;;;;;;17.38;10.63;;;8.90;99.90;;;;;;5008169;28;20247;-78
2022/05/28 05:06:12;;;;;;;16.75;11.05;;;8.90;99.90;;;;;;5009915;28;20177;-76
2022/05/28 05:08:42;;;;;;;19.92;10.15;;;8.90;99.90;;;;;;4975822;28;20054;-75
2022/05/28 05:11:10;;;;;;;22.30;11.25;;;8.90;99.90;;;;;;4991294;28;20042;-76
2022/05/28 05:13:36;;;;;;;16.58;11.10;;;8.90;99.90;;;;;;4997980;28;20086;-76
2022/05/28 05:16:08;;;;;;;22.48;11.40;;;8.90;99.90;;;;;;4982331;28;20049;-76
2022/05/28 05:18:35;;;;;;;19.25;11.50;;;8.80;99.90;;;;;;4998006;28;20050;-76
2022/05/28 05:21:02;;;;;;;19.40;10.63;;;8.80;99.90;;;;;;4994240;28;20456;-76
2022/05/28 05:23:29;;;;;;;20.75;10.75;;;8.90;99.90;;;;;;4974391;28;20403;-76
2022/05/28 05:25:56;;;;;;;16.50;11.02;;;8.80;99.90;;;;;;5005918;28;20049;-75
2022/05/28 05:28:23;;;;;;;16.98;10.52;;;8.80;99.90;;;;;;4991008;28;20065;-76
2022/05/28 05:30:49;;;;;;;18.45;10.65;;;8.80;99.90;;;;;;4992114;28;20773;-76
2022/05/28 05:33:16;;;;;;;16.45;11.65;;;8.80;99.90;;;;;;4992696;28;20395;-75
2022/05/28 05:35:43;;;;;;;17.50;10.18;;;9.00;99.90;;;;;;4993214;28;20053;-76
2022/05/28 05:38:09;;;;;;;14.07;11.32;;;9.10;99.90;;;;;;5010717;28;20046;-76
2022/05/28 05:40:40;;;;;;;21.83;11.82;;;9.10;99.90;;;;;;4995243;28;20050;-78
2022/05/28 05:43:07;;;;;;;15.55;11.48;;;9.10;99.90;;;;;;4996677;28;20046;-76
2022/05/28 05:45:34;;;;;;;16.42;11.35;;;9.10;99.90;;;;;;5011882;28;20042;-75
2022/05/28 05:48:01;;;;;;;13.63;11.70;;;9.10;99.90;;;;;;5008145;28;20046;-75
2022/05/28 05:50:28;;;;;;;17.70;12.38;;;9.10;99.90;;;;;;5019462;22;20386;-72
2022/05/28 05:52:55;;;;;;;16.52;13.00;;;9.10;99.90;;;;;;4999512;28;20487;-70
2022/05/28 05:55:22;;;;;;;21.27;13.05;;;9.10;99.90;;;;;;4983258;28;20050;-69
2022/05/28 05:57:49;;;;;;;13.90;12.50;;;9.20;99.90;;;;;;4983644;28;20104;-71
2022/05/28 06:00:16;;;;;;;14.90;13.27;;;9.30;99.90;;;;;;4982439;28;20108;-69
2022/05/28 06:02:43;;;;;;;14.23;12.90;;;9.30;99.90;;;;;;4997827;28;20240;-71
2022/05/28 06:05:10;;;;;;;15.50;13.77;;;9.20;99.90;;;;;;4966498;28;20126;-70
2022/05/28 06:07:38;;;;;;;21.90;13.10;;;9.40;99.90;;;;;;5000333;28;20550;-70
2022/05/28 06:10:08;;;;;;;15.70;13.73;;;9.50;99.90;;;;;;5001158;28;20478;-71
2022/05/28 06:12:35;;;;;;;25.00;15.95;;;9.40;99.90;;;;;;4999648;28;20767;-70
2022/05/28 06:15:03;;;;;;;16.58;15.02;;;9.50;99.90;;;;;;4998861;28;20062;-71
2022/05/28 06:17:30;;;;;;;16.40;14.35;;;9.60;99.90;;;;;;4999887;28;20049;-71
2022/05/28 06:19:57;;;;;;;21.98;15.20;;;9.70;99.90;;;;;;4985161;28;20542;-70
2022/05/28 06:22:24;;;;;;;16.90;15.25;;;9.70;99.90;;;;;;4984708;28;20049;-70
2022/05/28 06:24:50;;;;;;;16.90;13.90;;;9.60;99.90;;;;;;4996888;28;20053;-72
2022/05/28 06:27:17;;;;;;;22.27;15.20;;;9.70;99.90;;;;;;4997522;28;20103;-70
2022/05/28 06:29:44;;;;;;;18.67;13.23;;;9.60;99.90;;;;;;4998292;28;20053;-70
2022/05/28 06:32:11;;;;;;;22.63;13.48;;;9.50;99.90;;;;;;4999772;28;20072;-70
2022/05/28 06:34:38;;;;;;;14.00;12.73;;;9.50;99.90;;;;;;4997828;28;20405;-70
2022/05/28 06:37:09;;;;;;;24.38;13.38;;;9.30;99.90;;;;;;4999855;28;20092;-71
2022/05/28 06:39:36;;;;;;;12.60;10.70;;;9.20;99.90;;;;;;4998466;28;20336;-70
2022/05/28 06:42:04;;;;;;;19.63;11.02;;;9.20;99.90;;;;;;4999149;28;20095;-70
2022/05/28 06:44:31;;;;;;;14.70;12.32;;;9.30;99.90;;;;;;4998676;28;20042;-70
2022/05/28 06:46:58;;;;;;;18.58;13.93;;;9.60;99.90;;;;;;4998295;28;20046;-69
2022/05/28 06:49:25;;;;;;;18.33;12.63;;;9.90;99.90;;;;;;4996147;28;20050;-70
2022/05/28 06:51:52;;;;;;;19.95;15.07;;;10.30;99.90;;;;;;4997776;28;20568;-70
2022/05/28 06:54:19;;;;;;;18.23;15.90;;;10.40;99.90;;;;;;4999078;28;20406;-70
2022/05/28 06:56:45;;;;;;;19.23;16.48;;;10.50;99.90;;;;;;4999047;28;20476;-71
2022/05/28 06:59:12;;;;;;;27.35;17.75;;;11.00;99.90;;;;;;4999933;28;20483;-73
2022/05/28 07:01:40;;;;;;;21.92;17.52;;;11.10;99.90;;;;;;4999173;28;20431;-71
2022/05/28 07:04:06;;;;;;;18.73;16.85;;;10.80;99.90;;;;;;5000039;28;20135;-70
2022/05/28 07:06:34;;;;;;;20.63;17.52;;;10.60;99.90;;;;;;4999070;28;20046;-69
2022/05/28 07:09:00;;;;;;;22.13;18.42;;;10.90;99.90;;;;;;4982562;28;20076;-71
2022/05/28 07:11:27;;;;;;;18.20;16.85;;;11.10;99.90;;;;;;4983063;28;20403;-71
2022/05/28 07:13:54;;;;;;;21.08;18.73;;;11.30;99.90;;;;;;4979353;28;20472;-70
2022/05/28 07:16:21;;;;;;;20.65;18.58;;;11.30;99.90;;;;;;4982395;28;20173;-71
2022/05/28 07:18:47;;;;;;;21.27;19.48;;;11.20;99.90;;;;;;4999721;28;20042;-70
2022/05/28 07:21:14;;;;;;;23.05;20.67;;;10.90;99.90;;;;;;4998102;28;20577;-72
2022/05/28 07:23:41;;;;;;;21.27;19.85;;;10.80;99.90;;;;;;4982507;28;20108;-71
2022/05/28 07:26:14;;;;;;;21.95;19.70;;;10.70;99.90;;;;;;4997426;28;20505;-71
2022/05/28 07:28:44;;;;;;;21.48;19.20;;;10.70;99.90;;;;;;5000366;28;20236;-71
2022/05/28 07:31:14;;;;;;;21.48;19.42;;;10.80;99.90;;;;;;4974870;28;20591;-73
2022/05/28 07:33:44;;;;;;;22.10;20.23;;;10.60;99.90;;;;;;4995225;28;20140;-70
2022/05/28 07:36:20;;;;;;;25.10;20.27;;;10.50;99.90;;;;;;5012624;23;21885;-77
2022/05/28 07:38:47;;;;;;;21.50;19.30;;;10.30;99.90;;;;;;4982517;28;20053;-76
2022/05/28 07:41:17;;;;;;;20.92;19.00;;;10.40;99.90;;;;;;4983647;28;20124;-77
2022/05/28 07:43:44;;;;;;;23.60;19.65;;;10.40;99.90;;;;;;4985770;28;20046;-75
2022/05/28 07:46:31;;;;;;;21.85;19.00;;;10.50;99.90;;;;;;4984347;28;20042;-77
2022/05/28 07:49:00;;;;;;;21.77;19.85;;;10.70;99.90;;;;;;4991565;28;20539;-76
2022/05/28 07:51:29;;;;;;;21.92;19.48;;;11.10;99.90;;;;;;4991109;28;20253;-77
2022/05/28 07:53:57;;;;;;;21.80;19.95;;;11.50;99.90;;;;;;5004117;28;20123;-76
2022/05/28 07:56:23;;;;;;;21.67;19.75;;;11.40;99.90;;;;;;5003012;28;20053;-77
2022/05/28 07:58:54;;;;;;;22.38;20.52;;;11.20;99.90;;;;;;5006449;28;20042;-77
2022/05/28 08:01:23;;;;;;;23.52;21.10;;;11.10;99.90;;;;;;5009000;28;20045;-80
2022/05/28 08:03:50;;;;;;;21.23;19.25;;;10.90;99.90;;;;;;5007216;28;20540;-78
2022/05/28 08:06:18;;;;;;;22.33;20.15;;;10.90;99.90;;;;;;5006860;28;20049;-79
2022/05/28 08:08:46;;;;;;;22.33;20.48;;;10.70;99.90;;;;;;5005058;28;20112;-78
2022/05/28 08:11:13;;;;;;;22.15;20.17;;;10.70;99.90;;;;;;4996151;28;20042;-75
2022/05/28 08:13:40;;;;;;;23.25;21.58;;;10.90;99.90;;;;;;4985634;28;20043;-74
2022/05/28 08:16:06;;;;;;;25.90;21.77;;;11.20;99.90;;;;;;4983893;28;20065;-75
2022/05/28 08:18:36;;;;;;;24.27;21.83;;;11.30;99.90;;;;;;4989682;28;20050;-75
2022/05/28 08:23:49;;;;;;;22.85;20.88;;;11.40;99.90;;;;;;5006462;28;20377;-76
2022/05/28 08:26:19;;;;;;;23.52;21.40;;;11.30;99.90;;;;;;4986226;28;20123;-76
2022/05/28 08:28:51;;;;;;;23.33;21.13;;;11.40;99.90;;;;;;4986523;28;20077;-78
2022/05/28 08:31:19;;;;;;;22.25;20.27;;;11.40;99.90;;;;;;4989770;28;20046;-76
2022/05/28 08:33:47;;;;;;;22.13;20.27;;;11.70;99.90;;;;;;5006477;28;20500;-77
2022/05/28 08:36:14;;;;;;;23.50;21.25;;;11.90;99.90;;;;;;5019994;28;20109;-76
2022/05/28 08:38:42;;;;;;;23.02;21.33;;;12.00;99.90;;;;;;5017061;28;20053;-76
2022/05/28 08:41:14;;;;;;;21.75;20.13;;;12.10;99.90;;;;;;4984019;28;20509;-76
2022/05/28 08:44:02;;;;;;;22.73;20.98;;;12.10;99.90;;;;;;4986837;28;20054;-76
2022/05/28 08:46:35;;;;;;;23.67;21.55;;;12.20;99.90;;;;;;4982320;28;20066;-77
2022/05/28 08:49:06;;;;;;;23.52;21.35;;;11.90;99.90;;;;;;4990835;28;20064;-76
2022/05/28 08:51:44;;;;;;;25.20;22.58;;;11.70;99.90;;;;;;4997461;28;20080;-76
2022/05/28 08:54:26;;;;;;;24.40;22.33;;;11.70;99.90;;;;;;5000935;28;20113;-75
2022/05/28 08:57:01;;;;;;;24.55;22.42;;;11.70;99.90;;;;;;5002634;28;20113;-76
2022/05/28 08:59:32;;;;;;;23.02;20.83;;;12.30;99.90;;;;;;4972385;28;20077;-76
2022/05/28 09:02:06;;;;;;;21.40;19.88;;;12.40;99.90;;;;;;4984793;28;20034;-78
2022/05/28 09:04:39;;;;;;;22.20;20.10;;;12.10;99.90;;;;;;4984998;28;20465;-77
2022/05/28 09:07:14;;;;;;;22.25;20.33;;;12.10;99.90;;;;;;5016601;28;20034;-77
2022/05/28 09:09:44;;;;;;;21.65;19.70;;;12.40;99.90;;;;;;4988934;28;20038;-76
2022/05/28 09:12:21;;;;;;;22.27;20.65;;;12.80;99.90;;;;;;4980957;28;20042;-77
2022/05/28 09:14:47;;;;;;;21.65;19.80;;;13.40;99.90;;;;;;4999528;28;20096;-76
2022/05/28 09:17:29;;;;;;;21.80;19.65;;;13.40;99.90;;;;;;4983683;28;20074;-75
2022/05/28 09:19:59;;;;;;;20.58;18.95;;;13.70;99.90;;;;;;4989220;28;20069;-76
2022/05/28 09:22:26;;;;;;;21.58;19.90;;;13.80;99.90;;;;;;4968568;28;20097;-77
2022/05/28 09:24:53;;;;;;;23.15;21.35;;;13.60;99.90;;;;;;4988004;28;20130;-77
2022/05/28 09:27:38;;;;;;;22.67;21.10;;;13.30;99.90;;;;;;4987078;28;20502;-76
2022/05/28 09:30:23;;;;;;;26.08;20.23;;;13.40;99.90;;;;;;4986779;28;20050;-75
2022/05/28 09:33:28;;;;;;;21.92;20.35;;;13.90;99.90;;;;;;4983909;28;20263;-75
2022/05/28 09:36:16;;;;;;;22.63;21.17;;;13.80;99.90;;;;;;4987002;28;20636;-77
2022/05/28 09:38:43;;;;;;;23.10;20.95;;;13.90;99.90;;;;;;4983582;28;20529;-76
2022/05/28 09:41:34;;;;;;;22.80;21.02;;;14.10;99.90;;;;;;4965779;28;20046;-75
2022/05/28 09:44:19;;;;;;;21.85;19.98;;;14.00;99.90;;;;;;4995808;28;20049;-75
2022/05/28 09:46:46;;;;;;;22.10;20.17;;;14.10;99.90;;;;;;5024511;28;20448;-77
2022/05/28 09:49:19;;;;;;;21.38;19.98;;;13.70;99.90;;;;;;4991546;28;20050;-77
2022/05/28 09:52:10;;;;;;;25.48;23.23;;;13.40;99.90;;;;;;5001199;28;20505;-78
2022/05/28 09:54:37;;;;;;;22.50;20.75;;;13.20;99.90;;;;;;5006116;28;20057;-77
2022/05/28 09:57:31;;;;;;;22.92;21.15;;;13.90;99.90;;;;;;5010350;28;20049;-77
2022/05/28 10:00:03;;;;;;;23.20;21.08;;;13.70;99.90;;;;;;5004370;28;20046;-77
2022/05/28 10:04:28;;;;;;;21.60;20.10;;;13.80;99.90;;;;;;5000117;28;20128;-78
2022/05/28 10:05:40;;;;;;;26.38;21.23;;;13.70;99.90;;;;;;4999110;28;20056;-78
2022/05/28 10:08:10;;;;;;;21.90;20.40;;;13.60;99.90;;;;;;4997673;28;20093;-78
2022/05/28 10:10:39;;;;;;;24.15;22.10;;;13.40;99.90;;;;;;5010081;28;20060;-77
2022/05/28 10:13:12;;;;;;;22.90;20.98;;;13.40;99.90;;;;;;4982395;28;20102;-78
2022/05/28 10:16:00;;;;;;;21.90;20.17;;;13.60;99.90;;;;;;5000112;28;20054;-77
2022/05/28 10:18:41;;;;;;;21.75;19.95;;;14.10;99.90;;;;;;5019650;28;20061;-79
2022/05/28 10:21:18;;;;;;;23.05;20.92;;;14.10;99.90;;;;;;5004909;28;20366;-78
2022/05/28 10:23:52;;;;;;;21.02;19.38;;;13.80;99.90;;;;;;4989925;28;20125;-79
2022/05/28 10:26:21;;;;;;;22.85;21.05;;;13.50;99.90;;;;;;4985546;28;20220;-77
2022/05/28 10:28:53;;;;;;;21.42;19.75;;;13.60;99.90;;;;;;4991534;28;20054;-80
2022/05/28 10:31:34;;;;;;;22.00;20.23;;;13.60;99.90;;;;;;5003349;28;20135;-78
2022/05/28 10:34:02;;;;;;;22.13;20.50;;;13.40;99.90;;;;;;4988919;28;20117;-79
2022/05/28 10:36:31;;;;;;;23.55;21.35;;;13.10;99.90;;;;;;4985806;28;20070;-78
2022/05/28 10:39:16;;;;;;;21.60;20.10;;;12.80;99.90;;;;;;5004787;28;20089;-79
2022/05/28 10:41:48;;;;;;;22.27;20.60;;;13.10;99.90;;;;;;5007226;28;20046;-77
2022/05/28 10:44:19;;;;;;;22.17;20.25;;;13.20;99.90;;;;;;4988771;28;20100;-78
2022/05/28 10:47:08;;;;;;;22.85;20.55;;;13.40;99.90;;;;;;4985815;28;20085;-77
2022/05/28 10:49:55;;;;;;;22.25;20.55;;;13.90;99.90;;;;;;5000512;28;20060;-77
2022/05/28 10:52:24;;;;;;;20.50;18.98;;;13.90;99.90;;;;;;5003047;28;20054;-76
2022/05/28 10:54:54;;;;;;;20.90;18.95;;;13.80;99.90;;;;;;5004794;28;20050;-78
2022/05/28 10:57:40;;;;;;;20.17;18.45;;;13.50;99.90;;;;;;5004472;28;20535;-78
2022/05/28 11:00:19;;;;;;;19.77;18.23;;;13.30;99.90;;;;;;4988782;28;20074;-78
2022/05/28 11:03:22;;;;;;;20.58;19.00;;;13.10;99.90;;;;;;5004435;28;20058;-78
2022/05/28 11:06:07;;;;;;;20.77;18.70;;;12.70;99.90;;;;;;5005124;28;20116;-79
2022/05/28 11:09:01;;;;;;;16.75;15.15;;;11.80;99.90;;;;;;5006154;28;20204;-76
2022/05/28 11:11:43;;;;;;;16.50;15.20;;;11.20;99.90;;;;;;4988161;28;20050;-75
2022/05/28 11:14:30;;;;;;;15.43;14.02;;;10.70;99.90;;;;;;4983562;28;20050;-77
2022/05/28 11:17:40;;;;;;;14.15;13.00;;;10.40;99.90;;;;;;4981460;28;20661;-75
2022/05/28 11:20:24;;;;;;;13.35;12.05;;;10.40;99.90;;;;;;4986307;28;20045;-76
2022/05/28 11:23:14;;;;;;;14.88;10.85;;;10.40;99.90;;;;;;4963603;28;20046;-77
2022/05/28 11:25:52;;;;;;;13.70;12.20;;;10.60;99.90;;;;;;4963238;28;20074;-76
2022/05/28 11:28:46;;;;;;;12.80;11.55;;;10.80;99.90;;;;;;4983234;28;20610;-77
2022/05/28 11:31:22;;;;;;;14.38;9.18;;;11.20;99.90;;;;;;4983073;28;20775;-76
2022/05/28 11:33:51;;;;;;;14.52;13.10;;;12.00;99.90;;;;;;4982377;28;20138;-76
2022/05/28 11:36:41;;;;;;;16.48;14.80;;;12.40;99.90;;;;;;4997899;28;20070;-77
2022/05/28 11:39:12;;;;;;;16.92;14.75;;;12.60;99.90;;;;;;4973526;28;20537;-78
2022/05/28 11:41:54;;;;;;;17.23;15.55;;;12.80;99.90;;;;;;4994298;28;20106;-78
2022/05/28 11:44:33;;;;;;;18.83;17.45;;;13.20;99.90;;;;;;4972853;28;20049;-78
2022/05/28 11:47:40;;;;;;;19.55;18.25;;;13.40;99.90;;;;;;4982792;28;20045;-80
2022/05/28 11:53:04;;;;;;;20.77;19.00;;;12.80;99.90;;;;;;4987430;28;20056;-77
2022/05/28 11:55:35;;;;;;;21.95;20.08;;;12.50;99.90;;;;;;4998148;28;20073;-77
2022/05/28 11:58:05;;;;;;;23.27;21.40;;;12.50;99.90;;;;;;5023746;28;20035;-78
2022/05/28 12:00:40;;;;;;;24.13;22.70;;;13.20;99.90;;;;;;4990446;28;20451;-77
2022/05/28 12:03:22;;;;;;;24.02;22.08;;;13.70;99.90;;;;;;4982678;28;20143;-78
2022/05/28 12:06:02;;;;;;;23.88;22.20;;;14.20;99.90;;;;;;4980424;28;20049;-77
2022/05/28 12:08:49;;;;;;;23.67;22.17;;;14.70;99.90;;;;;;4982975;28;20521;-77
2022/05/28 12:11:37;;;;;;;23.08;21.77;;;14.90;99.90;;;;;;5013687;28;20051;-77
2022/05/28 12:14:18;;;;;;;22.15;20.45;;;15.00;99.90;;;;;;4985664;28;20058;-78
2022/05/28 12:17:08;;;;;;;23.33;21.63;;;14.90;99.90;;;;;;5012759;28;20480;-77
2022/05/28 12:19:44;;;;;;;23.70;22.20;;;14.80;99.90;;;;;;4991144;28;20049;-78
2022/05/28 12:22:36;;;;;;;24.95;23.55;;;14.80;99.90;;;;;;4982582;28;20104;-77
2022/05/28 12:25:07;;;;;;;21.40;19.83;;;15.30;99.90;;;;;;4990906;28;20117;-77
2022/05/28 12:28:08;;;;;;;21.65;20.15;;;15.20;99.90;;;;;;4983740;28;20423;-78
2022/05/28 12:30:39;;;;;;;21.58;20.08;;;14.70;99.90;;;;;;4983785;28;20428;-80
2022/05/28 12:33:28;;;;;;;22.98;20.92;;;14.50;99.90;;;;;;4986830;28;20062;-79
2022/05/28 12:36:17;;;;;;;21.25;20.00;;;14.20;99.90;;;;;;5002158;28;20050;-78
2022/05/28 12:39:04;;;;;;;21.92;19.83;;;13.40;99.90;;;;;;4967617;28;20040;-76
2022/05/28 12:41:35;;;;;;;21.35;19.33;;;12.50;99.90;;;;;;4998383;28;20109;-78
2022/05/28 12:44:22;;;;;;;18.58;17.17;;;11.70;99.90;;;;;;4985908;28;20098;-76
2022/05/28 12:47:00;;;;;;;18.98;17.27;;;11.20;99.90;;;;;;4980606;28;20149;-77
2022/05/28 12:49:52;;;;;;;17.58;15.93;;;10.90;99.90;;;;;;4992393;28;20056;-79
2022/05/28 12:52:22;;;;;;;17.58;15.93;;;10.90;99.90;;;;;;4982903;28;20112;-76
2022/05/28 12:55:04;;;;;;;18.75;17.35;;;11.00;99.90;;;;;;4995581;28;20479;-77
2022/05/28 12:57:36;;;;;;;19.55;18.27;;;11.10;99.90;;;;;;4985535;28;20551;-77
2022/05/28 13:00:14;;;;;;;22.92;21.23;;;11.50;99.90;;;;;;5002017;28;20052;-77
2022/05/28 13:02:43;;;;;;;24.15;22.05;;;11.80;99.90;;;;;;5000964;28;20092;-76
2022/05/28 13:05:29;;;;;;;21.85;20.40;;;12.20;99.90;;;;;;4987227;28;20065;-77